sensor_id;sensor_type;location;lat;lon;timestamp;pressure;altitude;pressure_sealevel;temperature
34961;BMP280;30789;52.030;7.110;2022-11-20T00:01:23;60481.56;;;-143.35
34961;BMP280;30789;52.030;7.110;2022-11-20T00:03:51;60481.56;;;-143.35
34961;BMP280;30789;52.030;7.110;2022-11-20T00:06:18;60481.56;;;-143.35
34961;BMP280;30789;52.030;7.110;2022-11-20T00:08:46;60481.56;;;-143.35
34961;BMP280;30789;52.030;7.110;2022-11-20T00:11:14;60481.56;;;-143.35
34961;BMP280;30789;52.030;7.110;2022-11-20T00:13:41;60481.56;;;-143.35
34961;BMP280;30789;52.030;7.110;2022-11-20T00:16:09;60481.56;;;-143.35
34961;BMP280;30789;52.030;7.110;2022-11-20T00:18:37;60481.56;;;-143.35
34961;BMP280;30789;52.030;7.110;2022-11-20T00:21:05;60481.56;;;-143.35
34961;BMP280;30789;52.030;7.110;2022-11-20T00:23:32;60481.56;;;-143.35
34961;BMP280;30789;52.030;7.110;2022-11-20T00:26:02;60481.56;;;-143.35
34961;BMP280;30789;52.030;7.110;2022-11-20T00:28:29;60481.56;;;-143.35
34961;BMP280;30789;52.030;7.110;2022-11-20T00:31:01;60481.56;;;-143.35
34961;BMP280;30789;52.030;7.110;2022-11-20T00:33:28;60481.56;;;-143.35
34961;BMP280;30789;52.030;7.110;2022-11-20T00:36:00;60481.56;;;-143.35
34961;BMP280;30789;52.030;7.110;2022-11-20T00:38:27;60481.56;;;-143.35
34961;BMP280;30789;52.030;7.110;2022-11-20T00:40:55;60481.56;;;-143.35
34961;BMP280;30789;52.030;7.110;2022-11-20T00:43:22;60481.56;;;-143.35
34961;BMP280;30789;52.030;7.110;2022-11-20T00:45:48;60481.56;;;-143.35
34961;BMP280;30789;52.030;7.110;2022-11-20T00:48:15;60481.56;;;-143.35
34961;BMP280;30789;52.030;7.110;2022-11-20T00:50:41;60481.56;;;-143.35
34961;BMP280;30789;52.030;7.110;2022-11-20T00:53:09;60481.56;;;-143.35
34961;BMP280;30789;52.030;7.110;2022-11-20T00:55:35;60481.56;;;-143.35
34961;BMP280;30789;52.030;7.110;2022-11-20T00:58:02;60481.56;;;-143.35
34961;BMP280;30789;52.030;7.110;2022-11-20T01:00:28;60481.56;;;-143.35
34961;BMP280;30789;52.030;7.110;2022-11-20T01:02:55;60481.56;;;-143.35
34961;BMP280;30789;52.030;7.110;2022-11-20T01:05:22;60481.56;;;-143.35
34961;BMP280;30789;52.030;7.110;2022-11-20T01:07:48;60481.56;;;-143.35
34961;BMP280;30789;52.030;7.110;2022-11-20T01:10:16;60481.56;;;-143.35
34961;BMP280;30789;52.030;7.110;2022-11-20T01:12:43;60481.56;;;-143.35
34961;BMP280;30789;52.030;7.110;2022-11-20T01:15:29;60481.56;;;-143.35
34961;BMP280;30789;52.030;7.110;2022-11-20T01:17:56;60481.56;;;-143.35
34961;BMP280;30789;52.030;7.110;2022-11-20T01:20:22;60481.56;;;-143.35
34961;BMP280;30789;52.030;7.110;2022-11-20T01:22:48;60481.56;;;-143.35
34961;BMP280;30789;52.030;7.110;2022-11-20T01:25:16;60481.56;;;-143.35
34961;BMP280;30789;52.030;7.110;2022-11-20T01:27:43;60481.56;;;-143.35
34961;BMP280;30789;52.030;7.110;2022-11-20T01:30:10;60481.56;;;-143.35
34961;BMP280;30789;52.030;7.110;2022-11-20T01:32:37;60481.56;;;-143.35
34961;BMP280;30789;52.030;7.110;2022-11-20T01:35:04;60481.56;;;-143.35
34961;BMP280;30789;52.030;7.110;2022-11-20T01:37:30;60481.56;;;-143.35
34961;BMP280;30789;52.030;7.110;2022-11-20T01:39:57;60481.56;;;-143.35
34961;BMP280;30789;52.030;7.110;2022-11-20T01:42:25;60481.56;;;-143.35
34961;BMP280;30789;52.030;7.110;2022-11-20T01:48:09;60481.56;;;-143.35
34961;BMP280;30789;52.030;7.110;2022-11-20T01:50:35;60481.56;;;-143.35
34961;BMP280;30789;52.030;7.110;2022-11-20T01:53:05;60481.56;;;-143.35
34961;BMP280;30789;52.030;7.110;2022-11-20T01:55:36;60481.56;;;-143.35
34961;BMP280;30789;52.030;7.110;2022-11-20T01:58:06;60481.56;;;-143.35
34961;BMP280;30789;52.030;7.110;2022-11-20T02:00:33;60481.56;;;-143.35
34961;BMP280;30789;52.030;7.110;2022-11-20T02:03:01;60481.56;;;-143.35
34961;BMP280;30789;52.030;7.110;2022-11-20T02:05:33;60481.56;;;-143.35
34961;BMP280;30789;52.030;7.110;2022-11-20T02:08:03;60481.56;;;-143.35
34961;BMP280;30789;52.030;7.110;2022-11-20T02:10:31;60481.56;;;-143.35
34961;BMP280;30789;52.030;7.110;2022-11-20T02:12:58;60481.56;;;-143.35
34961;BMP280;30789;52.030;7.110;2022-11-20T02:15:44;60481.56;;;-143.35
34961;BMP280;30789;52.030;7.110;2022-11-20T02:18:11;60481.56;;;-143.35
34961;BMP280;30789;52.030;7.110;2022-11-20T02:20:41;60481.56;;;-143.35
34961;BMP280;30789;52.030;7.110;2022-11-20T02:23:11;60481.56;;;-143.35
34961;BMP280;30789;52.030;7.110;2022-11-20T02:25:41;60481.56;;;-143.35
34961;BMP280;30789;52.030;7.110;2022-11-20T02:28:08;60481.56;;;-143.35
34961;BMP280;30789;52.030;7.110;2022-11-20T02:30:34;60481.56;;;-143.35
34961;BMP280;30789;52.030;7.110;2022-11-20T02:33:01;60481.56;;;-143.35
34961;BMP280;30789;52.030;7.110;2022-11-20T02:35:45;60481.56;;;-143.35
34961;BMP280;30789;52.030;7.110;2022-11-20T02:38:12;60481.56;;;-143.35
34961;BMP280;30789;52.030;7.110;2022-11-20T02:40:41;60481.56;;;-143.35
34961;BMP280;30789;52.030;7.110;2022-11-20T02:43:08;60481.56;;;-143.35
34961;BMP280;30789;52.030;7.110;2022-11-20T02:45:35;60481.56;;;-143.35
34961;BMP280;30789;52.030;7.110;2022-11-20T02:48:01;60481.56;;;-143.35
34961;BMP280;30789;52.030;7.110;2022-11-20T02:50:28;60481.56;;;-143.35
34961;BMP280;30789;52.030;7.110;2022-11-20T02:52:54;60481.56;;;-143.35
34961;BMP280;30789;52.030;7.110;2022-11-20T02:55:21;60481.56;;;-143.35
34961;BMP280;30789;52.030;7.110;2022-11-20T02:57:49;60481.56;;;-143.35
34961;BMP280;30789;52.030;7.110;2022-11-20T03:00:15;60481.56;;;-143.35
34961;BMP280;30789;52.030;7.110;2022-11-20T03:02:42;60481.56;;;-143.35
34961;BMP280;30789;52.030;7.110;2022-11-20T03:05:08;60481.56;;;-143.35
34961;BMP280;30789;52.030;7.110;2022-11-20T03:07:35;60481.56;;;-143.35
34961;BMP280;30789;52.030;7.110;2022-11-20T03:10:01;60481.56;;;-143.35
34961;BMP280;30789;52.030;7.110;2022-11-20T03:12:28;60481.56;;;-143.35
34961;BMP280;30789;52.030;7.110;2022-11-20T03:14:56;60481.56;;;-143.35
34961;BMP280;30789;52.030;7.110;2022-11-20T03:17:22;60481.56;;;-143.35
34961;BMP280;30789;52.030;7.110;2022-11-20T03:19:48;60481.56;;;-143.35
34961;BMP280;30789;52.030;7.110;2022-11-20T03:22:15;60481.56;;;-143.35
34961;BMP280;30789;52.030;7.110;2022-11-20T03:24:41;60481.56;;;-143.35
34961;BMP280;30789;52.030;7.110;2022-11-20T03:27:08;60481.56;;;-143.35
34961;BMP280;30789;52.030;7.110;2022-11-20T03:29:34;60481.56;;;-143.35
34961;BMP280;30789;52.030;7.110;2022-11-20T03:32:02;60481.56;;;-143.35
34961;BMP280;30789;52.030;7.110;2022-11-20T03:34:29;60481.56;;;-143.35
34961;BMP280;30789;52.030;7.110;2022-11-20T03:36:55;60481.56;;;-143.35
34961;BMP280;30789;52.030;7.110;2022-11-20T03:39:22;60481.56;;;-143.35
34961;BMP280;30789;52.030;7.110;2022-11-20T03:41:48;60481.56;;;-143.35
34961;BMP280;30789;52.030;7.110;2022-11-20T03:44:15;60481.56;;;-143.35
34961;BMP280;30789;52.030;7.110;2022-11-20T03:46:41;60481.56;;;-143.35
34961;BMP280;30789;52.030;7.110;2022-11-20T03:49:09;60481.56;;;-143.35
34961;BMP280;30789;52.030;7.110;2022-11-20T03:51:36;60481.56;;;-143.35
34961;BMP280;30789;52.030;7.110;2022-11-20T03:54:04;60481.56;;;-143.35
34961;BMP280;30789;52.030;7.110;2022-11-20T03:56:32;60481.56;;;-143.35
34961;BMP280;30789;52.030;7.110;2022-11-20T03:58:59;60481.56;;;-143.35
34961;BMP280;30789;52.030;7.110;2022-11-20T04:01:28;60481.56;;;-143.35
34961;BMP280;30789;52.030;7.110;2022-11-20T04:03:56;60481.56;;;-143.35
34961;BMP280;30789;52.030;7.110;2022-11-20T04:06:25;60481.56;;;-143.35
34961;BMP280;30789;52.030;7.110;2022-11-20T04:08:54;60481.56;;;-143.35
34961;BMP280;30789;52.030;7.110;2022-11-20T04:11:22;60481.56;;;-143.35
34961;BMP280;30789;52.030;7.110;2022-11-20T04:13:51;60481.56;;;-143.35
34961;BMP280;30789;52.030;7.110;2022-11-20T04:16:18;60481.56;;;-143.35
34961;BMP280;30789;52.030;7.110;2022-11-20T04:18:45;60481.56;;;-143.35
34961;BMP280;30789;52.030;7.110;2022-11-20T04:21:12;60481.56;;;-143.35
34961;BMP280;30789;52.030;7.110;2022-11-20T04:23:39;60481.56;;;-143.35
34961;BMP280;30789;52.030;7.110;2022-11-20T04:26:08;60481.56;;;-143.35
34961;BMP280;30789;52.030;7.110;2022-11-20T04:28:35;60481.56;;;-143.35
34961;BMP280;30789;52.030;7.110;2022-11-20T04:31:04;60481.56;;;-143.35
34961;BMP280;30789;52.030;7.110;2022-11-20T04:33:30;60481.56;;;-143.35
34961;BMP280;30789;52.030;7.110;2022-11-20T04:36:00;60481.56;;;-143.35
34961;BMP280;30789;52.030;7.110;2022-11-20T04:38:28;60481.56;;;-143.35
34961;BMP280;30789;52.030;7.110;2022-11-20T04:40:57;60481.56;;;-143.35
34961;BMP280;30789;52.030;7.110;2022-11-20T04:43:24;60481.56;;;-143.35
34961;BMP280;30789;52.030;7.110;2022-11-20T04:45:51;60481.56;;;-143.35
34961;BMP280;30789;52.030;7.110;2022-11-20T04:48:17;60481.56;;;-143.35
34961;BMP280;30789;52.030;7.110;2022-11-20T04:50:44;60481.56;;;-143.35
34961;BMP280;30789;52.030;7.110;2022-11-20T04:53:10;60481.56;;;-143.35
34961;BMP280;30789;52.030;7.110;2022-11-20T04:55:37;60481.56;;;-143.35
34961;BMP280;30789;52.030;7.110;2022-11-20T04:58:05;60481.56;;;-143.35
34961;BMP280;30789;52.030;7.110;2022-11-20T05:00:31;60481.56;;;-143.35
34961;BMP280;30789;52.030;7.110;2022-11-20T05:02:57;60481.56;;;-143.35
34961;BMP280;30789;52.030;7.110;2022-11-20T05:05:24;60481.56;;;-143.35
34961;BMP280;30789;52.030;7.110;2022-11-20T05:07:50;60481.56;;;-143.35
34961;BMP280;30789;52.030;7.110;2022-11-20T05:10:17;60481.56;;;-143.35
34961;BMP280;30789;52.030;7.110;2022-11-20T05:12:43;60481.56;;;-143.35
34961;BMP280;30789;52.030;7.110;2022-11-20T05:15:11;60481.56;;;-143.35
34961;BMP280;30789;52.030;7.110;2022-11-20T05:17:37;60481.56;;;-143.35
34961;BMP280;30789;52.030;7.110;2022-11-20T05:20:05;60481.56;;;-143.35
34961;BMP280;30789;52.030;7.110;2022-11-20T05:22:31;60481.56;;;-143.35
34961;BMP280;30789;52.030;7.110;2022-11-20T05:24:58;60481.56;;;-143.35
34961;BMP280;30789;52.030;7.110;2022-11-20T05:27:24;60481.56;;;-143.35
34961;BMP280;30789;52.030;7.110;2022-11-20T05:29:51;60481.56;;;-143.35
34961;BMP280;30789;52.030;7.110;2022-11-20T05:32:18;60481.56;;;-143.35
34961;BMP280;30789;52.030;7.110;2022-11-20T05:34:45;60481.56;;;-143.35
34961;BMP280;30789;52.030;7.110;2022-11-20T05:37:11;60481.56;;;-143.35
34961;BMP280;30789;52.030;7.110;2022-11-20T05:39:38;60481.56;;;-143.35
34961;BMP280;30789;52.030;7.110;2022-11-20T05:42:04;100460.25;;;3.12
34961;BMP280;30789;52.030;7.110;2022-11-20T05:44:48;100290.00;;;-4.26
34961;BMP280;30789;52.030;7.110;2022-11-20T05:47:14;100294.06;;;-4.31
34961;BMP280;30789;52.030;7.110;2022-11-20T05:49:42;100295.94;;;-4.24
34961;BMP280;30789;52.030;7.110;2022-11-20T05:52:08;100283.63;;;-4.43
34961;BMP280;30789;52.030;7.110;2022-11-20T05:54:35;100282.41;;;-4.27
34961;BMP280;30789;52.030;7.110;2022-11-20T05:57:01;100284.00;;;-4.29
34961;BMP280;30789;52.030;7.110;2022-11-20T05:59:28;100277.63;;;-4.17
34961;BMP280;30789;52.030;7.110;2022-11-20T06:01:54;100283.38;;;-4.22
34961;BMP280;30789;52.030;7.110;2022-11-20T06:04:21;100285.97;;;-4.19
34961;BMP280;30789;52.030;7.110;2022-11-20T06:06:49;100289.75;;;-4.35
34961;BMP280;30789;52.030;7.110;2022-11-20T06:09:15;100290.22;;;-4.18
34961;BMP280;30789;52.030;7.110;2022-11-20T06:11:41;100295.72;;;-4.31
34961;BMP280;30789;52.030;7.110;2022-11-20T06:14:08;100297.84;;;-4.45
34961;BMP280;30789;52.030;7.110;2022-11-20T06:16:34;100304.50;;;-4.48
34961;BMP280;30789;52.030;7.110;2022-11-20T06:19:01;60481.56;;;-143.35
34961;BMP280;30789;52.030;7.110;2022-11-20T06:21:27;60481.56;;;-143.35
34961;BMP280;30789;52.030;7.110;2022-11-20T06:23:55;60481.56;;;-143.35
34961;BMP280;30789;52.030;7.110;2022-11-20T06:26:23;60481.56;;;-143.35
34961;BMP280;30789;52.030;7.110;2022-11-20T06:28:51;60481.56;;;-143.35
34961;BMP280;30789;52.030;7.110;2022-11-20T06:31:19;60481.56;;;-143.35
34961;BMP280;30789;52.030;7.110;2022-11-20T06:33:46;60481.56;;;-143.35
34961;BMP280;30789;52.030;7.110;2022-11-20T06:36:14;60481.56;;;-143.35
34961;BMP280;30789;52.030;7.110;2022-11-20T06:38:41;60481.56;;;-143.35
34961;BMP280;30789;52.030;7.110;2022-11-20T06:41:11;60481.56;;;-143.35
34961;BMP280;30789;52.030;7.110;2022-11-20T06:43:38;60481.56;;;-143.35
34961;BMP280;30789;52.030;7.110;2022-11-20T06:46:05;60481.56;;;-143.35
34961;BMP280;30789;52.030;7.110;2022-11-20T06:48:32;60481.56;;;-143.35
34961;BMP280;30789;52.030;7.110;2022-11-20T06:50:58;60481.56;;;-143.35
34961;BMP280;30789;52.030;7.110;2022-11-20T06:53:24;60481.56;;;-143.35
34961;BMP280;30789;52.030;7.110;2022-11-20T06:55:51;60481.56;;;-143.35
34961;BMP280;30789;52.030;7.110;2022-11-20T06:58:20;60481.56;;;-143.35
34961;BMP280;30789;52.030;7.110;2022-11-20T07:00:46;60481.56;;;-143.35
34961;BMP280;30789;52.030;7.110;2022-11-20T07:03:13;60481.56;;;-143.35
34961;BMP280;30789;52.030;7.110;2022-11-20T07:05:39;60481.56;;;-143.35
34961;BMP280;30789;52.030;7.110;2022-11-20T07:08:06;60481.56;;;-143.35
34961;BMP280;30789;52.030;7.110;2022-11-20T07:10:33;60481.56;;;-143.35
34961;BMP280;30789;52.030;7.110;2022-11-20T07:13:00;60481.56;;;-143.35
34961;BMP280;30789;52.030;7.110;2022-11-20T07:15:27;60481.56;;;-143.35
34961;BMP280;30789;52.030;7.110;2022-11-20T07:17:54;60481.56;;;-143.35
34961;BMP280;30789;52.030;7.110;2022-11-20T07:20:20;60481.56;;;-143.35
34961;BMP280;30789;52.030;7.110;2022-11-20T07:22:53;60481.56;;;-143.35
34961;BMP280;30789;52.030;7.110;2022-11-20T07:25:19;60481.56;;;-143.35
34961;BMP280;30789;52.030;7.110;2022-11-20T07:27:45;60481.56;;;-143.35
34961;BMP280;30789;52.030;7.110;2022-11-20T07:30:13;60481.56;;;-143.35
34961;BMP280;30789;52.030;7.110;2022-11-20T07:32:41;60481.56;;;-143.35
34961;BMP280;30789;52.030;7.110;2022-11-20T07:35:08;60481.56;;;-143.35
34961;BMP280;30789;52.030;7.110;2022-11-20T07:37:35;60481.56;;;-143.35
34961;BMP280;30789;52.030;7.110;2022-11-20T07:40:02;60481.56;;;-143.35
34961;BMP280;30789;52.030;7.110;2022-11-20T07:42:29;60481.56;;;-143.35
34961;BMP280;30789;52.030;7.110;2022-11-20T07:44:55;60481.56;;;-143.35
34961;BMP280;30789;52.030;7.110;2022-11-20T07:47:22;60481.56;;;-143.35
34961;BMP280;30789;52.030;7.110;2022-11-20T07:49:50;60481.56;;;-143.35
34961;BMP280;30789;52.030;7.110;2022-11-20T07:52:16;60481.56;;;-143.35
34961;BMP280;30789;52.030;7.110;2022-11-20T07:54:42;60481.56;;;-143.35
34961;BMP280;30789;52.030;7.110;2022-11-20T07:57:09;60481.56;;;-143.35
34961;BMP280;30789;52.030;7.110;2022-11-20T07:59:35;60481.56;;;-143.35
34961;BMP280;30789;52.030;7.110;2022-11-20T08:02:02;60481.56;;;-143.35
34961;BMP280;30789;52.030;7.110;2022-11-20T08:04:28;60481.56;;;-143.35
34961;BMP280;30789;52.030;7.110;2022-11-20T08:06:56;60481.56;;;-143.35
34961;BMP280;30789;52.030;7.110;2022-11-20T08:09:22;60481.56;;;-143.35
34961;BMP280;30789;52.030;7.110;2022-11-20T08:11:49;60481.56;;;-143.35
34961;BMP280;30789;52.030;7.110;2022-11-20T08:14:33;60481.56;;;-143.35
34961;BMP280;30789;52.030;7.110;2022-11-20T08:16:59;60481.56;;;-143.35
34961;BMP280;30789;52.030;7.110;2022-11-20T08:19:26;100290.31;;;-3.18
34961;BMP280;30789;52.030;7.110;2022-11-20T08:21:52;100285.53;;;-3.06
34961;BMP280;30789;52.030;7.110;2022-11-20T08:24:20;100284.81;;;-2.99
34961;BMP280;30789;52.030;7.110;2022-11-20T08:26:47;100278.25;;;-2.92
34961;BMP280;30789;52.030;7.110;2022-11-20T08:29:13;100275.97;;;-2.81
34961;BMP280;30789;52.030;7.110;2022-11-20T08:31:39;100277.75;;;-2.77
34961;BMP280;30789;52.030;7.110;2022-11-20T08:34:06;100274.56;;;-2.69
34961;BMP280;30789;52.030;7.110;2022-11-20T08:36:33;100278.03;;;-2.64
34961;BMP280;30789;52.030;7.110;2022-11-20T08:39:00;100271.53;;;-2.53
34961;BMP280;30789;52.030;7.110;2022-11-20T08:41:28;100274.75;;;-2.60
34961;BMP280;30789;52.030;7.110;2022-11-20T08:43:59;100274.88;;;-2.54
34961;BMP280;30789;52.030;7.110;2022-11-20T08:46:30;100274.97;;;-2.51
34961;BMP280;30789;52.030;7.110;2022-11-20T08:48:58;100264.97;;;-2.43
34961;BMP280;30789;52.030;7.110;2022-11-20T08:51:24;100270.22;;;-2.34
34961;BMP280;30789;52.030;7.110;2022-11-20T08:53:51;100271.22;;;-2.27
34961;BMP280;30789;52.030;7.110;2022-11-20T08:56:17;100277.38;;;-2.15
34961;BMP280;30789;52.030;7.110;2022-11-20T08:58:45;100281.75;;;-2.06
34961;BMP280;30789;52.030;7.110;2022-11-20T09:01:12;100278.59;;;-1.94
34961;BMP280;30789;52.030;7.110;2022-11-20T09:03:38;100273.75;;;-1.82
34961;BMP280;30789;52.030;7.110;2022-11-20T09:06:06;100273.22;;;-1.66
34961;BMP280;30789;52.030;7.110;2022-11-20T09:08:33;100283.44;;;-1.61
34961;BMP280;30789;52.030;7.110;2022-11-20T09:11:01;100269.97;;;-1.57
34961;BMP280;30789;52.030;7.110;2022-11-20T09:13:28;100269.22;;;-1.52
34961;BMP280;30789;52.030;7.110;2022-11-20T09:15:57;100266.78;;;-1.47
34961;BMP280;30789;52.030;7.110;2022-11-20T09:18:25;100264.41;;;-1.37
34961;BMP280;30789;52.030;7.110;2022-11-20T09:20:51;100255.06;;;-1.39
34961;BMP280;30789;52.030;7.110;2022-11-20T09:23:18;100250.16;;;-1.30
34961;BMP280;30789;52.030;7.110;2022-11-20T09:25:45;100249.31;;;-1.29
34961;BMP280;30789;52.030;7.110;2022-11-20T09:28:11;100244.53;;;-1.11
34961;BMP280;30789;52.030;7.110;2022-11-20T09:30:38;100241.16;;;-1.08
34961;BMP280;30789;52.030;7.110;2022-11-20T09:33:06;100234.66;;;-0.91
34961;BMP280;30789;52.030;7.110;2022-11-20T09:35:33;100230.50;;;-0.88
34961;BMP280;30789;52.030;7.110;2022-11-20T09:38:04;100229.75;;;-0.80
34961;BMP280;30789;52.030;7.110;2022-11-20T09:40:31;100236.50;;;-0.81
34961;BMP280;30789;52.030;7.110;2022-11-20T09:43:00;100223.97;;;-0.69
34961;BMP280;30789;52.030;7.110;2022-11-20T09:45:37;100224.91;;;-0.61
34961;BMP280;30789;52.030;7.110;2022-11-20T09:48:24;100220.75;;;-0.56
34961;BMP280;30789;52.030;7.110;2022-11-20T09:50:58;100224.25;;;-0.46
34961;BMP280;30789;52.030;7.110;2022-11-20T09:53:35;100227.75;;;-0.36
34961;BMP280;30789;52.030;7.110;2022-11-20T09:56:09;100232.97;;;-0.24
34961;BMP280;30789;52.030;7.110;2022-11-20T09:58:41;100231.31;;;-0.22
34961;BMP280;30789;52.030;7.110;2022-11-20T10:01:11;100217.97;;;-0.03
34961;BMP280;30789;52.030;7.110;2022-11-20T10:03:51;100223.88;;;-0.04
34961;BMP280;30789;52.030;7.110;2022-11-20T10:06:24;100218.09;;;0.11
34961;BMP280;30789;52.030;7.110;2022-11-20T10:09:01;100210.63;;;0.27
34961;BMP280;30789;52.030;7.110;2022-11-20T10:14:09;100216.81;;;0.57
34961;BMP280;30789;52.030;7.110;2022-11-20T10:16:44;100209.34;;;0.81
34961;BMP280;30789;52.030;7.110;2022-11-20T10:19:34;100200.19;;;1.06
34961;BMP280;30789;52.030;7.110;2022-11-20T10:22:35;100205.41;;;1.30
34961;BMP280;30789;52.030;7.110;2022-11-20T10:25:13;100210.50;;;1.35
34961;BMP280;30789;52.030;7.110;2022-11-20T10:27:52;100213.22;;;1.71
34961;BMP280;30789;52.030;7.110;2022-11-20T10:30:22;100208.19;;;2.08
34961;BMP280;30789;52.030;7.110;2022-11-20T10:32:53;100204.84;;;2.36
34961;BMP280;30789;52.030;7.110;2022-11-20T10:35:25;100206.56;;;2.61
34961;BMP280;30789;52.030;7.110;2022-11-20T10:37:58;100192.91;;;2.91
34961;BMP280;30789;52.030;7.110;2022-11-20T10:40:31;100206.41;;;3.36
34961;BMP280;30789;52.030;7.110;2022-11-20T10:43:01;100191.13;;;3.25
34961;BMP280;30789;52.030;7.110;2022-11-20T10:45:36;100191.13;;;3.26
34961;BMP280;30789;52.030;7.110;2022-11-20T10:48:12;100185.19;;;3.23
34961;BMP280;30789;52.030;7.110;2022-11-20T10:50:49;100189.44;;;3.15
34961;BMP280;30789;52.030;7.110;2022-11-20T10:53:31;100186.03;;;3.22
34961;BMP280;30789;52.030;7.110;2022-11-20T10:56:05;100183.47;;;3.22
34961;BMP280;30789;52.030;7.110;2022-11-20T10:58:40;100188.34;;;3.72
34961;BMP280;30789;52.030;7.110;2022-11-20T11:01:14;100187.19;;;4.25
34961;BMP280;30789;52.030;7.110;2022-11-20T11:03:41;100178.22;;;4.79
34961;BMP280;30789;52.030;7.110;2022-11-20T11:06:14;100176.66;;;4.63
34961;BMP280;30789;52.030;7.110;2022-11-20T11:08:47;100176.00;;;4.38
34961;BMP280;30789;52.030;7.110;2022-11-20T11:11:21;100167.56;;;4.25
34961;BMP280;30789;52.030;7.110;2022-11-20T11:13:48;100162.59;;;4.07
34961;BMP280;30789;52.030;7.110;2022-11-20T11:16:21;100160.03;;;4.08
34961;BMP280;30789;52.030;7.110;2022-11-20T11:18:48;100151.53;;;4.02
34961;BMP280;30789;52.030;7.110;2022-11-20T11:21:22;100156.72;;;3.93
34961;BMP280;30789;52.030;7.110;2022-11-20T11:23:58;100161.91;;;3.81
34961;BMP280;30789;52.030;7.110;2022-11-20T11:26:25;100157.56;;;3.96
34961;BMP280;30789;52.030;7.110;2022-11-20T11:28:56;100157.59;;;3.87
34961;BMP280;30789;52.030;7.110;2022-11-20T11:31:24;100150.84;;;3.76
34961;BMP280;30789;52.030;7.110;2022-11-20T11:33:51;100149.22;;;3.65
34961;BMP280;30789;52.030;7.110;2022-11-20T11:36:21;100145.81;;;3.65
34961;BMP280;30789;52.030;7.110;2022-11-20T11:38:51;100150.03;;;3.67
34961;BMP280;30789;52.030;7.110;2022-11-20T11:41:20;100141.47;;;3.73
34961;BMP280;30789;52.030;7.110;2022-11-20T11:43:51;100141.41;;;3.90
34961;BMP280;30789;52.030;7.110;2022-11-20T11:46:36;100140.47;;;4.00
34961;BMP280;30789;52.030;7.110;2022-11-20T11:49:14;100129.31;;;4.08
34961;BMP280;30789;52.030;7.110;2022-11-20T11:51:52;100126.63;;;4.25
34961;BMP280;30789;52.030;7.110;2022-11-20T11:54:24;100126.47;;;4.45
34961;BMP280;30789;52.030;7.110;2022-11-20T11:56:53;100120.88;;;4.90
34961;BMP280;30789;52.030;7.110;2022-11-20T11:59:25;100109.94;;;5.48
34961;BMP280;30789;52.030;7.110;2022-11-20T12:01:55;100099.16;;;6.38
34961;BMP280;30789;52.030;7.110;2022-11-20T12:04:42;100106.97;;;7.63
34961;BMP280;30789;52.030;7.110;2022-11-20T12:07:15;100089.47;;;8.49
34961;BMP280;30789;52.030;7.110;2022-11-20T12:09:49;100089.88;;;8.34
34961;BMP280;30789;52.030;7.110;2022-11-20T12:12:20;100086.66;;;8.59
34961;BMP280;30789;52.030;7.110;2022-11-20T12:14:49;100079.13;;;10.50
34961;BMP280;30789;52.030;7.110;2022-11-20T12:17:19;100077.56;;;10.46
34961;BMP280;30789;52.030;7.110;2022-11-20T12:19:45;100091.28;;;9.09
34961;BMP280;30789;52.030;7.110;2022-11-20T12:22:24;100089.81;;;7.63
34961;BMP280;30789;52.030;7.110;2022-11-20T12:24:58;100092.19;;;5.94
34961;BMP280;30789;52.030;7.110;2022-11-20T12:27:57;100081.03;;;5.36
34961;BMP280;30789;52.030;7.110;2022-11-20T12:30:28;100077.94;;;5.11
34961;BMP280;30789;52.030;7.110;2022-11-20T12:33:18;100075.78;;;4.76
34961;BMP280;30789;52.030;7.110;2022-11-20T12:36:01;100072.72;;;4.40
34961;BMP280;30789;52.030;7.110;2022-11-20T12:38:54;100073.00;;;4.12
34961;BMP280;30789;52.030;7.110;2022-11-20T12:41:37;100074.84;;;3.93
34961;BMP280;30789;52.030;7.110;2022-11-20T12:44:39;100068.09;;;3.84
34961;BMP280;30789;52.030;7.110;2022-11-20T12:47:45;100059.06;;;4.41
34961;BMP280;30789;52.030;7.110;2022-11-20T12:50:19;100053.00;;;5.23
34961;BMP280;30789;52.030;7.110;2022-11-20T12:52:56;100050.25;;;5.95
34961;BMP280;30789;52.030;7.110;2022-11-20T12:55:31;100038.19;;;6.00
34961;BMP280;30789;52.030;7.110;2022-11-20T12:58:06;100040.56;;;5.56
34961;BMP280;30789;52.030;7.110;2022-11-20T13:00:40;100039.31;;;5.24
34961;BMP280;30789;52.030;7.110;2022-11-20T13:03:39;100020.63;;;5.16
34961;BMP280;30789;52.030;7.110;2022-11-20T13:06:15;100021.25;;;4.68
34961;BMP280;30789;52.030;7.110;2022-11-20T13:08:47;100007.25;;;4.20
34961;BMP280;30789;52.030;7.110;2022-11-20T13:11:19;100000.50;;;4.14
34961;BMP280;30789;52.030;7.110;2022-11-20T13:14:12;99997.94;;;4.11
34961;BMP280;30789;52.030;7.110;2022-11-20T13:16:48;99987.88;;;3.94
34961;BMP280;30789;52.030;7.110;2022-11-20T13:19:16;99986.97;;;3.98
34961;BMP280;30789;52.030;7.110;2022-11-20T13:21:45;99986.25;;;3.86
34961;BMP280;30789;52.030;7.110;2022-11-20T13:24:22;99982.88;;;3.79
34961;BMP280;30789;52.030;7.110;2022-11-20T13:27:04;99976.88;;;3.85
34961;BMP280;30789;52.030;7.110;2022-11-20T13:29:31;99968.44;;;3.75
34961;BMP280;30789;52.030;7.110;2022-11-20T13:32:06;99963.34;;;3.72
34961;BMP280;30789;52.030;7.110;2022-11-20T13:34:35;99961.69;;;3.68
34961;BMP280;30789;52.030;7.110;2022-11-20T13:37:02;99954.00;;;3.66
34961;BMP280;30789;52.030;7.110;2022-11-20T13:39:31;99952.41;;;3.58
34961;BMP280;30789;52.030;7.110;2022-11-20T13:42:01;99948.19;;;3.48
34961;BMP280;30789;52.030;7.110;2022-11-20T13:44:31;99955.06;;;3.46
34961;BMP280;30789;52.030;7.110;2022-11-20T13:47:00;99951.59;;;3.53
34961;BMP280;30789;52.030;7.110;2022-11-20T13:49:29;99952.50;;;3.47
34961;BMP280;30789;52.030;7.110;2022-11-20T13:52:06;99947.44;;;3.40
34961;BMP280;30789;52.030;7.110;2022-11-20T13:54:54;99946.59;;;3.39
34961;BMP280;30789;52.030;7.110;2022-11-20T13:58:04;99944.06;;;3.32
34961;BMP280;30789;52.030;7.110;2022-11-20T14:00:43;111872.38;;;3.35
34961;BMP280;30789;52.030;7.110;2022-11-20T14:03:17;99938.16;;;3.23
34961;BMP280;30789;52.030;7.110;2022-11-20T14:05:50;99931.34;;;3.27
34961;BMP280;30789;52.030;7.110;2022-11-20T14:08:24;99933.06;;;3.26
34961;BMP280;30789;52.030;7.110;2022-11-20T14:11:02;99930.50;;;3.25
34961;BMP280;30789;52.030;7.110;2022-11-20T14:13:30;99933.88;;;3.30
34961;BMP280;30789;52.030;7.110;2022-11-20T14:15:57;99934.75;;;3.26